Startpagina
METAR-TAF:

METAR-TAF

Vliegvelden :

Productieplatform

P11-b, Nederland

breedte: 52-21-36N, lengte: 3-20-30E, hoogte: 24 m

Actueel weer

Dit bericht is 32 minuten geleden gemaakt, om 21:55 UTC
Wind 14 kt uit het noordwesten, variërend tussen het westen en het noorden
Temperatuur 10°C
Vochtigheid 100%
Druk 1013 hPa
Zicht: 2300 m
Geheel bewolkt lager dan 100 ft
nevel

METAR: EHPG 202155Z AUTO 31014KT 270V360 2300 BR OVC000 10/10 Q1013 W///H///

Tijdstip: 00:27 (22:27 UTC)


TAF: ontbreekt

Waarnemingen en weersverwachtingen van meer dan 4000 vliegvelden (METAR en TAF).

De beschikbare stations zijn de gele en rode punten op de kaart.

Ga met uw muis naar het station om de naam te zien.

Klik dan om waarnemingen en weersverwachtingen te zien.

kaart wijzigen: klik op de groene knoppen met een zwart kruis om in te zoomen, op de groene knop met een streepje om uit te zoomen of op de groene pijlen voor aangrenzende kaarten.


METAR-TAF: